createdAt,value
2023-04-29T00:00:12.423Z,60.40
2023-04-29T00:03:02.090Z,60.85
2023-04-29T00:05:31.123Z,61.11
2023-04-29T00:08:02.349Z,61.82
2023-04-29T00:10:31.016Z,61.91
2023-04-29T00:12:59.606Z,61.65
2023-04-29T00:15:28.406Z,62.07
2023-04-29T00:17:56.628Z,62.29
2023-04-29T00:20:25.073Z,62.14
2023-04-29T00:22:53.456Z,62.18
2023-04-29T00:25:21.845Z,62.44
2023-04-29T00:27:50.014Z,62.29
2023-04-29T00:30:18.408Z,62.33
2023-04-29T00:32:46.946Z,62.09
2023-04-29T00:35:15.589Z,62.47
2023-04-29T00:37:44.476Z,62.29
2023-04-29T00:40:15.398Z,62.22
2023-04-29T00:42:43.913Z,62.10
2023-04-29T00:45:12.658Z,62.71
2023-04-29T00:47:41.216Z,62.58
2023-04-29T00:50:10.153Z,63.15
2023-04-29T00:52:39.634Z,63.92
2023-04-29T00:55:09.379Z,63.62
2023-04-29T00:57:39.231Z,64.27
2023-04-29T01:00:10.257Z,64.38
2023-04-29T01:02:39.519Z,65.18
2023-04-29T01:05:08.168Z,64.80
2023-04-29T01:08:06.362Z,65.15
2023-04-29T01:11:02.345Z,65.06
2023-04-29T01:13:46.287Z,65.18
2023-04-29T01:16:31.712Z,64.81
2023-04-29T01:19:26.346Z,65.35
2023-04-29T01:21:54.723Z,65.26
2023-04-29T01:24:23.119Z,65.45
2023-04-29T01:27:33.729Z,65.17
2023-04-29T01:30:21.176Z,65.16
2023-04-29T01:33:17.607Z,65.82
2023-04-29T01:36:05.943Z,65.60
2023-04-29T01:38:42.243Z,65.65
2023-04-29T01:41:23.892Z,65.75
2023-04-29T01:43:58.934Z,65.63
2023-04-29T01:46:31.139Z,66.37
2023-04-29T01:49:00.818Z,66.58
2023-04-29T01:51:30.025Z,66.92
2023-04-29T01:53:59.224Z,66.60
2023-04-29T01:56:27.811Z,66.14
2023-04-29T01:59:08.482Z,67.02
2023-04-29T02:01:56.828Z,67.48
2023-04-29T02:04:26.468Z,67.71
2023-04-29T02:06:54.923Z,67.32
2023-04-29T02:09:23.711Z,67.33
2023-04-29T02:11:55.263Z,67.03
2023-04-29T02:14:23.547Z,66.62
2023-04-29T02:16:52.757Z,66.76
2023-04-29T02:19:21.656Z,66.68
2023-04-29T02:21:51.977Z,66.53
2023-04-29T02:24:20.366Z,66.17
2023-04-29T02:26:49.466Z,66.30
2023-04-29T02:29:17.949Z,66.40
2023-04-29T02:31:46.796Z,66.42
2023-04-29T02:34:15.031Z,66.32
2023-04-29T02:36:43.826Z,66.05
2023-04-29T02:39:12.822Z,66.10
2023-04-29T02:41:42.327Z,65.93
2023-04-29T02:44:13.075Z,65.67
2023-04-29T02:46:45.652Z,65.82
2023-04-29T02:49:14.445Z,65.76
2023-04-29T02:51:43.344Z,65.80
2023-04-29T02:54:12.233Z,65.71
2023-04-29T02:56:40.631Z,65.58
2023-04-29T02:59:08.914Z,65.76
2023-04-29T03:01:38.826Z,65.87
2023-04-29T03:04:08.074Z,65.92
2023-04-29T03:06:37.043Z,65.76
2023-04-29T03:09:05.722Z,66.15
2023-04-29T03:11:34.176Z,65.91
2023-04-29T03:14:03.009Z,66.13
2023-04-29T03:16:31.828Z,66.18
2023-04-29T03:19:00.274Z,66.13
2023-04-29T03:21:29.945Z,66.29
2023-04-29T03:23:58.681Z,66.48
2023-04-29T03:26:32.391Z,66.40
2023-04-29T03:29:00.773Z,66.35
2023-04-29T03:31:29.952Z,66.37
2023-04-29T03:33:58.771Z,66.44
2023-04-29T03:36:28.268Z,66.78
2023-04-29T03:39:09.045Z,66.54
2023-04-29T03:41:37.638Z,66.56
2023-04-29T03:44:06.447Z,66.82
2023-04-29T03:46:35.342Z,67.05
2023-04-29T03:49:04.645Z,66.76
2023-04-29T03:51:33.515Z,66.81
2023-04-29T03:54:11.322Z,66.76
2023-04-29T03:56:40.221Z,66.86
2023-04-29T03:59:08.808Z,66.80
2023-04-29T04:01:37.972Z,66.65
2023-04-29T04:04:06.815Z,66.50
2023-04-29T04:06:36.736Z,66.43
2023-04-29T04:09:05.214Z,66.59
2023-04-29T04:11:36.665Z,66.41
2023-04-29T04:14:05.983Z,66.35
2023-04-29T04:16:34.520Z,66.44
2023-04-29T04:19:03.359Z,66.29
2023-04-29T04:21:33.785Z,66.21
2023-04-29T04:24:07.321Z,66.26
2023-04-29T04:26:35.773Z,66.50
2023-04-29T04:29:10.102Z,66.47
2023-04-29T04:32:00.964Z,66.66
2023-04-29T04:34:29.585Z,66.35
2023-04-29T04:36:59.089Z,66.18
2023-04-29T04:39:27.996Z,66.19
2023-04-29T04:41:57.517Z,66.06
2023-04-29T04:44:27.314Z,65.68
2023-04-29T04:47:18.210Z,65.85
2023-04-29T04:49:59.285Z,65.61
2023-04-29T04:52:28.289Z,65.27
2023-04-29T04:55:18.785Z,65.37
2023-04-29T04:57:48.154Z,65.21
2023-04-29T05:00:17.251Z,65.12
2023-04-29T05:02:46.611Z,64.85
2023-04-29T05:05:14.942Z,64.77
2023-04-29T05:07:44.070Z,64.56
2023-04-29T05:10:12.459Z,64.12
2023-04-29T05:12:46.675Z,64.26
2023-04-29T05:15:17.042Z,64.11
2023-04-29T05:17:46.052Z,64.13
2023-04-29T05:20:14.486Z,63.56
2023-04-29T05:22:43.076Z,63.23
2023-04-29T05:25:11.664Z,63.17
2023-04-29T05:27:40.675Z,62.67
2023-04-29T05:30:12.655Z,62.81
2023-04-29T05:32:40.943Z,62.64
2023-04-29T05:35:10.943Z,62.45
2023-04-29T05:37:39.627Z,62.25
2023-04-29T05:40:28.985Z,62.13
2023-04-29T05:43:09.861Z,62.22
2023-04-29T05:45:38.662Z,61.79
2023-04-29T05:48:07.733Z,61.53
2023-04-29T05:50:36.696Z,61.26
2023-04-29T05:53:05.547Z,61.09
2023-04-29T05:55:34.554Z,60.77
2023-04-29T05:58:02.830Z,60.68
2023-04-29T06:00:32.034Z,60.59
2023-04-29T06:03:02.821Z,60.12
2023-04-29T06:05:31.757Z,59.85
2023-04-29T06:08:19.709Z,60.15
2023-04-29T06:10:56.991Z,59.85
2023-04-29T06:13:31.499Z,59.99
2023-04-29T06:16:11.647Z,59.68
2023-04-29T06:18:40.155Z,59.64
2023-04-29T06:21:08.597Z,59.79
2023-04-29T06:23:38.046Z,59.71
2023-04-29T06:26:12.268Z,59.41
2023-04-29T06:28:40.648Z,59.61
2023-04-29T06:31:09.995Z,59.41
2023-04-29T06:33:38.451Z,58.98
2023-04-29T06:36:07.240Z,58.71
2023-04-29T06:38:38.073Z,58.55
2023-04-29T06:41:41.659Z,58.64
2023-04-29T06:44:25.091Z,58.55
2023-04-29T06:47:01.561Z,58.32
2023-04-29T06:49:44.892Z,58.04
2023-04-29T06:52:14.088Z,57.21
2023-04-29T06:54:44.823Z,56.77
2023-04-29T06:57:13.219Z,55.73
2023-04-29T06:59:41.804Z,55.22
2023-04-29T07:02:09.981Z,55.17
2023-04-29T07:04:38.301Z,54.58
2023-04-29T07:07:07.167Z,53.77
2023-04-29T07:09:36.183Z,53.33
2023-04-29T07:12:06.384Z,52.97
2023-04-29T07:14:34.565Z,52.87
2023-04-29T07:17:03.658Z,52.58
2023-04-29T07:19:32.888Z,51.97
2023-04-29T07:22:01.456Z,51.49
2023-04-29T07:24:29.739Z,51.81
2023-04-29T07:26:57.918Z,48.16
2023-04-29T07:29:26.305Z,46.72
2023-04-29T07:31:55.064Z,46.84
2023-04-29T07:34:24.609Z,45.02
2023-04-29T07:36:52.907Z,44.83
2023-04-29T07:39:21.798Z,45.05
2023-04-29T07:41:54.055Z,43.95
2023-04-29T07:44:22.859Z,43.81
2023-04-29T07:46:52.565Z,43.37
2023-04-29T07:49:21.052Z,43.25
2023-04-29T07:51:49.639Z,42.71
2023-04-29T07:54:19.694Z,42.11
2023-04-29T07:56:48.261Z,41.28
2023-04-29T07:59:16.671Z,39.34
2023-04-29T08:01:45.225Z,40.01
2023-04-29T08:04:14.022Z,39.23
2023-04-29T08:06:50.286Z,39.97
2023-04-29T08:09:18.672Z,39.55
2023-04-29T08:11:47.024Z,40.08
2023-04-29T08:14:15.435Z,40.22
2023-04-29T08:16:43.985Z,39.06
2023-04-29T08:19:12.812Z,40.08
2023-04-29T08:21:41.715Z,39.73
2023-04-29T08:24:10.096Z,39.31
2023-04-29T08:26:40.883Z,39.25
2023-04-29T08:29:09.601Z,38.33
2023-04-29T08:31:37.983Z,37.57
2023-04-29T08:34:06.202Z,37.28
2023-04-29T08:36:34.758Z,37.05
2023-04-29T08:39:03.485Z,35.71
2023-04-29T08:41:34.733Z,33.54
2023-04-29T08:44:03.625Z,31.13
2023-04-29T08:46:32.772Z,32.71
2023-04-29T08:49:04.529Z,33.02
2023-04-29T08:51:33.346Z,33.57
2023-04-29T08:54:01.668Z,33.10
2023-04-29T08:56:31.454Z,32.39
2023-04-29T08:59:01.917Z,32.10
2023-04-29T09:01:31.242Z,32.04
2023-04-29T09:04:16.333Z,30.82
2023-04-29T09:06:44.869Z,31.32
2023-04-29T09:09:15.361Z,31.15
2023-04-29T09:11:43.683Z,30.34
2023-04-29T09:14:12.994Z,29.90
2023-04-29T09:16:41.692Z,29.49
2023-04-29T09:19:10.481Z,29.06
2023-04-29T09:21:38.758Z,29.19
2023-04-29T09:24:07.267Z,28.31
2023-04-29T09:26:43.704Z,27.91
2023-04-29T09:29:14.592Z,27.75
2023-04-29T09:31:43.206Z,28.09
2023-04-29T09:34:13.167Z,26.51
2023-04-29T09:36:49.131Z,26.50
2023-04-29T09:39:19.565Z,25.38
2023-04-29T09:41:50.807Z,25.14
2023-04-29T09:44:24.019Z,25.24
2023-04-29T09:46:57.524Z,24.27
2023-04-29T09:49:28.450Z,23.14
2023-04-29T09:51:59.616Z,23.49
2023-04-29T09:54:30.127Z,22.19
2023-04-29T09:57:00.267Z,20.95
2023-04-29T09:59:28.844Z,20.60
2023-04-29T10:01:58.537Z,20.59
2023-04-29T10:04:28.252Z,21.54
2023-04-29T10:06:56.960Z,21.14
2023-04-29T10:09:25.145Z,20.59
2023-04-29T10:11:55.047Z,20.55
2023-04-29T10:14:25.047Z,20.40
2023-04-29T10:17:03.911Z,19.99
2023-04-29T10:19:45.593Z,18.90
2023-04-29T10:22:27.771Z,18.45
2023-04-29T10:24:59.319Z,17.92
2023-04-29T10:27:29.614Z,18.29
2023-04-29T10:30:01.237Z,18.72
2023-04-29T10:32:39.914Z,18.69
2023-04-29T10:35:10.859Z,17.90
2023-04-29T10:37:39.893Z,18.19
2023-04-29T10:40:21.280Z,17.07
2023-04-29T10:42:51.783Z,16.58
2023-04-29T10:45:32.024Z,17.01
2023-04-29T10:48:07.093Z,16.71
2023-04-29T10:50:49.212Z,16.66
2023-04-29T10:53:22.462Z,17.21
2023-04-29T10:56:04.923Z,16.91
2023-04-29T10:58:44.847Z,15.51
2023-04-29T11:01:17.886Z,17.05
2023-04-29T11:03:58.857Z,17.42
2023-04-29T11:06:36.508Z,15.97
2023-04-29T11:09:15.240Z,16.58
2023-04-29T11:11:46.408Z,16.05
2023-04-29T11:14:16.458Z,16.25
2023-04-29T11:16:53.570Z,16.08
2023-04-29T11:19:31.351Z,16.84
2023-04-29T11:22:14.836Z,15.99
2023-04-29T11:25:11.890Z,14.56
2023-04-29T11:27:42.775Z,15.11
2023-04-29T11:30:11.914Z,15.10
2023-04-29T11:32:43.064Z,14.93
2023-04-29T11:35:13.740Z,14.23
2023-04-29T11:37:45.013Z,13.58
2023-04-29T11:40:17.184Z,14.02
2023-04-29T11:42:47.858Z,13.74
2023-04-29T11:45:20.148Z,13.84
2023-04-29T11:47:49.279Z,13.37
2023-04-29T11:50:20.569Z,14.00
2023-04-29T11:52:50.235Z,13.24
2023-04-29T11:55:19.722Z,13.13
2023-04-29T11:57:52.591Z,12.92
2023-04-29T12:00:21.082Z,13.67
2023-04-29T12:02:49.503Z,13.40
2023-04-29T12:05:19.553Z,13.44
2023-04-29T12:07:51.455Z,13.23
2023-04-29T12:10:21.215Z,12.87
2023-04-29T12:12:51.906Z,12.32
2023-04-29T12:15:21.032Z,11.66
2023-04-29T12:17:49.382Z,12.62
2023-04-29T12:20:17.869Z,12.39
2023-04-29T12:22:47.065Z,11.81
2023-04-29T12:25:16.879Z,12.28
2023-04-29T12:27:45.284Z,11.73
2023-04-29T12:30:14.874Z,11.48
2023-04-29T12:32:43.636Z,11.71
2023-04-29T12:35:19.025Z,11.22
2023-04-29T12:37:51.333Z,11.21
2023-04-29T12:40:20.887Z,12.00
2023-04-29T12:42:49.508Z,12.25
2023-04-29T12:45:32.970Z,12.04
2023-04-29T12:48:07.227Z,11.63
2023-04-29T12:50:41.225Z,11.66
2023-04-29T12:53:13.871Z,10.85
2023-04-29T12:55:42.402Z,11.22
2023-04-29T12:58:11.204Z,11.74
2023-04-29T13:00:39.637Z,11.27
2023-04-29T13:03:08.819Z,11.39
2023-04-29T13:05:37.380Z,11.65
2023-04-29T13:08:07.097Z,10.99
2023-04-29T13:10:36.114Z,10.90
2023-04-29T13:13:04.383Z,10.84
2023-04-29T13:15:33.552Z,11.36
2023-04-29T13:18:02.785Z,11.31
2023-04-29T13:20:32.660Z,10.82
2023-04-29T13:23:01.189Z,11.40
2023-04-29T13:25:29.677Z,11.57
2023-04-29T13:27:57.830Z,10.80
2023-04-29T13:30:26.548Z,10.96
2023-04-29T13:32:58.694Z,11.15
2023-04-29T13:35:32.833Z,10.24
2023-04-29T13:38:02.085Z,9.74
2023-04-29T13:40:30.834Z,10.74
2023-04-29T13:43:05.836Z,11.17
2023-04-29T13:45:41.241Z,10.22
2023-04-29T13:48:34.809Z,9.97
2023-04-29T13:54:17.448Z,10.18
2023-04-29T13:59:36.125Z,9.51
2023-04-29T14:02:14.764Z,9.95
2023-04-29T14:04:30.101Z,9.22
2023-04-29T14:06:58.464Z,9.79
2023-04-29T14:09:27.052Z,10.28
2023-04-29T14:11:55.415Z,10.31
2023-04-29T14:14:23.717Z,9.83
2023-04-29T14:16:53.135Z,9.67
2023-04-29T14:19:21.698Z,9.71
2023-04-29T14:21:49.990Z,9.28
2023-04-29T14:24:18.677Z,9.25
2023-04-29T14:26:46.959Z,9.65
2023-04-29T14:29:15.952Z,9.75
2023-04-29T14:31:44.381Z,9.79
2023-04-29T14:34:13.643Z,9.42
2023-04-29T14:36:42.870Z,9.94
2023-04-29T14:39:11.863Z,9.28
2023-04-29T14:41:40.534Z,8.97
2023-04-29T14:44:08.718Z,9.27
2023-04-29T14:46:37.123Z,9.89
2023-04-29T14:49:06.400Z,9.53
2023-04-29T14:51:35.509Z,9.97
2023-04-29T14:54:03.889Z,9.76
2023-04-29T14:56:32.682Z,9.34
2023-04-29T14:59:01.062Z,8.87
2023-04-29T15:01:31.903Z,9.41
2023-04-29T15:04:01.529Z,9.76
2023-04-29T15:06:31.994Z,9.62
2023-04-29T15:09:00.644Z,10.07
2023-04-29T15:11:28.919Z,9.97
2023-04-29T15:13:57.343Z,8.96
2023-04-29T15:16:27.262Z,9.44
2023-04-29T15:18:55.999Z,9.73
2023-04-29T15:21:24.405Z,9.95
2023-04-29T15:23:52.790Z,10.29
2023-04-29T15:26:22.200Z,10.55
2023-04-29T15:28:50.844Z,10.58
2023-04-29T15:31:21.801Z,10.66
2023-04-29T15:33:55.665Z,10.15
2023-04-29T15:36:33.364Z,10.46
2023-04-29T15:39:01.821Z,11.23
2023-04-29T15:41:30.222Z,11.44
2023-04-29T15:43:58.698Z,10.96
2023-04-29T15:46:28.117Z,11.57
2023-04-29T15:48:57.616Z,11.45
2023-04-29T15:51:26.206Z,11.82
2023-04-29T15:53:54.697Z,11.43
2023-04-29T15:56:23.193Z,11.87
2023-04-29T15:58:51.867Z,11.89
2023-04-29T16:01:20.310Z,11.97
2023-04-29T16:03:48.712Z,11.17
2023-04-29T16:06:18.783Z,10.93
2023-04-29T16:08:50.417Z,11.66
2023-04-29T16:11:21.875Z,11.83
2023-04-29T16:13:50.056Z,11.67
2023-04-29T16:16:19.111Z,12.14
2023-04-29T16:18:47.553Z,12.88
2023-04-29T16:21:16.045Z,13.60
2023-04-29T16:23:44.409Z,13.96
2023-04-29T16:26:12.813Z,14.36
2023-04-29T16:28:42.014Z,14.94
2023-04-29T16:31:13.204Z,15.45
2023-04-29T16:33:42.043Z,15.58
2023-04-29T16:36:11.519Z,15.85
2023-04-29T16:38:40.046Z,15.60
2023-04-29T16:41:08.324Z,15.86
2023-04-29T16:43:37.018Z,16.03
2023-04-29T16:46:07.559Z,16.51
2023-04-29T16:48:36.255Z,17.15
2023-04-29T16:51:05.051Z,17.71
2023-04-29T16:53:33.524Z,18.47
2023-04-29T16:56:01.812Z,19.49
2023-04-29T16:58:30.625Z,20.14
2023-04-29T17:00:59.261Z,20.70
2023-04-29T17:03:27.894Z,20.99
2023-04-29T17:05:59.549Z,21.86
2023-04-29T17:08:28.136Z,22.42
2023-04-29T17:10:56.628Z,22.37
2023-04-29T17:13:28.069Z,23.14
2023-04-29T17:15:56.926Z,24.20
2023-04-29T17:18:28.727Z,24.03
2023-04-29T17:20:57.529Z,24.56
2023-04-29T17:23:25.803Z,25.98
2023-04-29T17:25:55.857Z,26.45
2023-04-29T17:28:24.628Z,27.10
2023-04-29T17:31:00.162Z,27.35
2023-04-29T17:33:35.652Z,28.12
2023-04-29T17:36:05.704Z,28.65
2023-04-29T17:38:34.323Z,28.80
2023-04-29T17:41:03.120Z,29.66
2023-04-29T17:43:33.960Z,30.48
2023-04-29T17:46:02.388Z,30.70
2023-04-29T17:48:32.525Z,31.11
2023-04-29T17:51:01.169Z,31.19
2023-04-29T17:53:29.540Z,31.42
2023-04-29T17:55:58.846Z,31.89
2023-04-29T17:58:29.200Z,32.30
2023-04-29T18:00:58.002Z,32.56
2023-04-29T18:03:27.582Z,33.02
2023-04-29T18:05:56.190Z,33.14
2023-04-29T18:08:24.553Z,33.57
2023-04-29T18:10:56.325Z,34.11
2023-04-29T18:13:27.016Z,34.10
2023-04-29T18:15:55.962Z,34.27
2023-04-29T18:18:24.459Z,34.26
2023-04-29T18:20:52.911Z,34.43
2023-04-29T18:23:22.657Z,34.83
2023-04-29T18:25:51.048Z,35.21
2023-04-29T18:28:25.251Z,35.47
2023-04-29T18:30:55.780Z,35.48
2023-04-29T18:33:26.662Z,35.72
2023-04-29T18:35:55.101Z,35.96
2023-04-29T18:38:24.120Z,36.68
2023-04-29T18:40:52.687Z,37.04
2023-04-29T18:43:24.831Z,37.08
2023-04-29T18:45:53.695Z,37.51
2023-04-29T18:48:22.140Z,37.46
2023-04-29T18:50:55.237Z,37.50
2023-04-29T18:53:23.415Z,37.72
2023-04-29T18:55:51.923Z,37.88
2023-04-29T18:58:20.280Z,37.91
2023-04-29T19:00:49.062Z,38.17
2023-04-29T19:03:17.793Z,38.26
2023-04-29T19:05:47.234Z,38.52
2023-04-29T19:08:16.584Z,38.90
2023-04-29T19:10:45.341Z,39.04
2023-04-29T19:13:13.673Z,38.98
2023-04-29T19:15:42.483Z,39.36
2023-04-29T19:18:11.149Z,39.42
2023-04-29T19:20:41.079Z,39.41
2023-04-29T19:23:09.348Z,39.53
2023-04-29T19:25:37.773Z,39.75
2023-04-29T19:28:06.323Z,40.17
2023-04-29T19:30:35.111Z,40.54
2023-04-29T19:33:04.430Z,40.33
2023-04-29T19:35:32.800Z,40.58
2023-04-29T19:38:01.291Z,40.85
2023-04-29T19:40:29.778Z,40.87
2023-04-29T19:42:58.177Z,41.52
2023-04-29T19:45:26.858Z,42.14
2023-04-29T19:47:58.560Z,42.36
2023-04-29T19:50:29.465Z,42.62
2023-04-29T19:52:59.297Z,42.79
2023-04-29T19:55:27.562Z,42.88
2023-04-29T19:57:58.711Z,43.08
2023-04-29T20:00:27.314Z,43.44
2023-04-29T20:02:55.706Z,43.31
2023-04-29T20:05:24.167Z,43.81
2023-04-29T20:07:53.786Z,44.15
2023-04-29T20:10:22.488Z,44.27
2023-04-29T20:12:51.278Z,44.92
2023-04-29T20:15:19.852Z,44.97
2023-04-29T20:17:48.641Z,45.39
2023-04-29T20:20:17.230Z,45.35
2023-04-29T20:22:47.155Z,45.43
2023-04-29T20:25:17.172Z,45.92
2023-04-29T20:27:45.456Z,46.27
2023-04-29T20:30:14.148Z,46.35
2023-04-29T20:32:43.605Z,46.45
2023-04-29T20:35:12.361Z,46.56
2023-04-29T20:37:40.934Z,47.34
2023-04-29T20:40:10.515Z,47.11
2023-04-29T20:42:42.219Z,47.17
2023-04-29T20:45:14.563Z,47.46
2023-04-29T20:47:44.360Z,47.42
2023-04-29T20:50:13.219Z,48.01
2023-04-29T20:52:41.899Z,48.37
2023-04-29T20:55:10.706Z,49.31
2023-04-29T20:57:39.989Z,48.92
2023-04-29T21:00:11.634Z,49.46
2023-04-29T21:02:40.521Z,49.22
2023-04-29T21:05:12.527Z,49.89
2023-04-29T21:07:48.793Z,49.79
2023-04-29T21:10:18.307Z,49.71
2023-04-29T21:12:56.401Z,49.98
2023-04-29T21:15:29.648Z,50.47
2023-04-29T21:18:04.780Z,50.55
2023-04-29T21:20:33.419Z,50.43
2023-04-29T21:23:01.808Z,50.45
2023-04-29T21:25:29.987Z,50.84
2023-04-29T21:27:58.474Z,51.21
2023-04-29T21:30:27.061Z,51.43
2023-04-29T21:32:55.695Z,51.50
2023-04-29T21:35:24.239Z,51.48
2023-04-29T21:37:56.409Z,51.62
2023-04-29T21:40:26.690Z,51.76
2023-04-29T21:42:57.671Z,51.69
2023-04-29T21:45:25.960Z,51.84
2023-04-29T21:47:56.900Z,52.00
2023-04-29T21:50:27.553Z,52.21
2023-04-29T21:52:55.928Z,52.24
2023-04-29T21:55:24.204Z,52.36
2023-04-29T21:57:52.625Z,52.37
2023-04-29T22:00:33.256Z,52.42
2023-04-29T22:03:06.425Z,52.52
2023-04-29T22:05:35.644Z,52.66
2023-04-29T22:08:07.360Z,52.59
2023-04-29T22:10:40.214Z,52.89
2023-04-29T22:13:09.189Z,52.86
2023-04-29T22:15:37.785Z,52.93
2023-04-29T22:18:06.284Z,53.86
2023-04-29T22:20:34.760Z,53.73
2023-04-29T22:23:02.951Z,53.97
2023-04-29T22:25:31.435Z,53.97
2023-04-29T22:28:00.139Z,54.42
2023-04-29T22:30:28.802Z,54.51
2023-04-29T22:32:57.905Z,54.52
2023-04-29T22:35:26.296Z,54.76
2023-04-29T22:37:54.985Z,54.73
2023-04-29T22:40:23.983Z,54.84
2023-04-29T22:42:52.365Z,54.97
2023-04-29T22:45:20.763Z,55.49
2023-04-29T22:47:49.290Z,55.19
2023-04-29T22:50:18.149Z,55.27
2023-04-29T22:52:46.316Z,55.21
2023-04-29T22:55:14.712Z,55.50
2023-04-29T22:57:42.982Z,55.87
2023-04-29T23:00:13.215Z,56.18
2023-04-29T23:02:42.247Z,56.55
2023-04-29T23:05:10.773Z,56.60
2023-04-29T23:07:39.081Z,56.63
2023-04-29T23:10:08.076Z,56.81
2023-04-29T23:12:36.257Z,56.58
2023-04-29T23:15:05.171Z,56.98
2023-04-29T23:17:37.577Z,57.07
2023-04-29T23:20:07.770Z,57.20
2023-04-29T23:22:36.248Z,57.10
2023-04-29T23:25:05.017Z,57.71
2023-04-29T23:27:33.216Z,57.50
2023-04-29T23:30:02.622Z,58.12
2023-04-29T23:32:30.968Z,58.25
2023-04-29T23:34:59.499Z,58.25
2023-04-29T23:37:31.566Z,58.16
2023-04-29T23:40:00.281Z,58.40
2023-04-29T23:42:28.647Z,58.42
2023-04-29T23:44:57.166Z,58.38
2023-04-29T23:47:28.911Z,58.37
2023-04-29T23:49:57.345Z,58.72
2023-04-29T23:52:26.287Z,58.68
2023-04-29T23:54:54.563Z,58.89
2023-04-29T23:57:22.935Z,59.45
2023-04-29T23:59:53.178Z,59.52
